sensor_id;sensor_type;location;lat;lon;timestamp;P1;durP1;ratioP1;P2;durP2;ratioP2
19675;SDS011;39539;52.202;9.876;2023-02-15T00:00:13;16.80;;;15.10;;
19675;SDS011;39539;52.202;9.876;2023-02-15T00:02:39;15.75;;;14.25;;
19675;SDS011;39539;52.202;9.876;2023-02-15T00:05:05;14.10;;;12.73;;
19675;SDS011;39539;52.202;9.876;2023-02-15T00:07:30;14.18;;;12.88;;
19675;SDS011;39539;52.202;9.876;2023-02-15T00:09:56;14.65;;;13.35;;
19675;SDS011;39539;52.202;9.876;2023-02-15T00:12:21;13.38;;;12.27;;
19675;SDS011;39539;52.202;9.876;2023-02-15T00:14:47;13.48;;;12.18;;
19675;SDS011;39539;52.202;9.876;2023-02-15T00:17:12;13.07;;;11.98;;
19675;SDS011;39539;52.202;9.876;2023-02-15T00:19:38;12.23;;;11.10;;
19675;SDS011;39539;52.202;9.876;2023-02-15T00:22:04;14.55;;;13.25;;
19675;SDS011;39539;52.202;9.876;2023-02-15T00:24:30;13.88;;;12.57;;
19675;SDS011;39539;52.202;9.876;2023-02-15T00:26:55;14.63;;;13.23;;
19675;SDS011;39539;52.202;9.876;2023-02-15T00:29:20;15.02;;;13.63;;
19675;SDS011;39539;52.202;9.876;2023-02-15T00:31:46;15.50;;;14.02;;
19675;SDS011;39539;52.202;9.876;2023-02-15T00:34:20;15.20;;;13.65;;
19675;SDS011;39539;52.202;9.876;2023-02-15T00:36:47;14.70;;;13.30;;
19675;SDS011;39539;52.202;9.876;2023-02-15T00:39:13;13.52;;;12.23;;
19675;SDS011;39539;52.202;9.876;2023-02-15T00:41:39;13.05;;;11.73;;
19675;SDS011;39539;52.202;9.876;2023-02-15T00:44:04;11.95;;;10.85;;
19675;SDS011;39539;52.202;9.876;2023-02-15T00:46:31;11.93;;;10.68;;
19675;SDS011;39539;52.202;9.876;2023-02-15T00:48:56;10.73;;;9.73;;
19675;SDS011;39539;52.202;9.876;2023-02-15T00:51:21;12.10;;;10.95;;
19675;SDS011;39539;52.202;9.876;2023-02-15T00:53:47;10.98;;;9.88;;
19675;SDS011;39539;52.202;9.876;2023-02-15T00:56:12;11.23;;;10.23;;
19675;SDS011;39539;52.202;9.876;2023-02-15T00:58:38;12.05;;;10.95;;
19675;SDS011;39539;52.202;9.876;2023-02-15T01:01:05;11.38;;;10.27;;
19675;SDS011;39539;52.202;9.876;2023-02-15T01:03:35;11.57;;;10.40;;
19675;SDS011;39539;52.202;9.876;2023-02-15T01:06:01;11.45;;;10.45;;
19675;SDS011;39539;52.202;9.876;2023-02-15T01:08:27;13.18;;;12.00;;
19675;SDS011;39539;52.202;9.876;2023-02-15T01:10:53;12.48;;;11.15;;
19675;SDS011;39539;52.202;9.876;2023-02-15T01:13:19;11.45;;;10.43;;
19675;SDS011;39539;52.202;9.876;2023-02-15T01:15:45;11.35;;;10.25;;
19675;SDS011;39539;52.202;9.876;2023-02-15T01:18:10;12.32;;;11.18;;
19675;SDS011;39539;52.202;9.876;2023-02-15T01:20:37;12.32;;;11.13;;
19675;SDS011;39539;52.202;9.876;2023-02-15T01:23:06;12.70;;;11.43;;
19675;SDS011;39539;52.202;9.876;2023-02-15T01:25:32;13.25;;;11.95;;
19675;SDS011;39539;52.202;9.876;2023-02-15T01:27:59;11.50;;;10.40;;
19675;SDS011;39539;52.202;9.876;2023-02-15T01:30:24;13.60;;;12.32;;
19675;SDS011;39539;52.202;9.876;2023-02-15T01:32:50;13.40;;;12.07;;
19675;SDS011;39539;52.202;9.876;2023-02-15T01:35:16;12.07;;;11.00;;
19675;SDS011;39539;52.202;9.876;2023-02-15T01:37:41;11.88;;;10.73;;
19675;SDS011;39539;52.202;9.876;2023-02-15T01:40:08;12.90;;;11.68;;
19675;SDS011;39539;52.202;9.876;2023-02-15T01:42:40;12.30;;;11.02;;
19675;SDS011;39539;52.202;9.876;2023-02-15T01:50:53;12.98;;;11.68;;
19675;SDS011;39539;52.202;9.876;2023-02-15T01:53:23;12.73;;;11.15;;
19675;SDS011;39539;52.202;9.876;2023-02-15T01:55:53;13.15;;;11.85;;
19675;SDS011;39539;52.202;9.876;2023-02-15T01:58:24;13.73;;;12.43;;
19675;SDS011;39539;52.202;9.876;2023-02-15T02:00:52;14.40;;;12.90;;
19675;SDS011;39539;52.202;9.876;2023-02-15T02:03:24;14.50;;;12.88;;
19675;SDS011;39539;52.202;9.876;2023-02-15T02:06:01;14.80;;;13.30;;
19675;SDS011;39539;52.202;9.876;2023-02-15T02:09:54;15.85;;;14.35;;
19675;SDS011;39539;52.202;9.876;2023-02-15T02:12:20;14.98;;;13.45;;
19675;SDS011;39539;52.202;9.876;2023-02-15T02:14:47;13.80;;;12.52;;
19675;SDS011;39539;52.202;9.876;2023-02-15T02:17:20;12.45;;;10.93;;
19675;SDS011;39539;52.202;9.876;2023-02-15T02:34:16;12.80;;;11.63;;
19675;SDS011;39539;52.202;9.876;2023-02-15T02:36:55;12.75;;;11.52;;
19675;SDS011;39539;52.202;9.876;2023-02-15T02:39:24;12.05;;;10.85;;
19675;SDS011;39539;52.202;9.876;2023-02-15T02:42:01;12.73;;;11.43;;
19675;SDS011;39539;52.202;9.876;2023-02-15T02:44:43;11.85;;;10.65;;
19675;SDS011;39539;52.202;9.876;2023-02-15T02:47:33;12.07;;;10.98;;
19675;SDS011;39539;52.202;9.876;2023-02-15T02:50:06;12.27;;;10.98;;
19675;SDS011;39539;52.202;9.876;2023-02-15T02:52:41;11.07;;;10.00;;
19675;SDS011;39539;52.202;9.876;2023-02-15T02:57:45;11.80;;;10.70;;
19675;SDS011;39539;52.202;9.876;2023-02-15T03:00:19;12.40;;;11.20;;
19675;SDS011;39539;52.202;9.876;2023-02-15T03:02:47;12.02;;;10.93;;
19675;SDS011;39539;52.202;9.876;2023-02-15T03:05:16;11.02;;;9.90;;
19675;SDS011;39539;52.202;9.876;2023-02-15T03:07:46;13.93;;;12.52;;
19675;SDS011;39539;52.202;9.876;2023-02-15T03:10:15;12.90;;;11.38;;
19675;SDS011;39539;52.202;9.876;2023-02-15T03:12:42;16.02;;;12.68;;
19675;SDS011;39539;52.202;9.876;2023-02-15T03:15:09;18.33;;;14.30;;
19675;SDS011;39539;52.202;9.876;2023-02-15T03:17:40;14.10;;;12.50;;
19675;SDS011;39539;52.202;9.876;2023-02-15T03:20:14;15.90;;;12.60;;
19675;SDS011;39539;52.202;9.876;2023-02-15T03:22:45;12.57;;;11.32;;
19675;SDS011;39539;52.202;9.876;2023-02-15T03:27:54;12.23;;;11.02;;
19675;SDS011;39539;52.202;9.876;2023-02-15T03:30:24;12.88;;;11.57;;
19675;SDS011;39539;52.202;9.876;2023-02-15T03:32:52;13.40;;;11.77;;
19675;SDS011;39539;52.202;9.876;2023-02-15T03:35:20;14.30;;;12.13;;
19675;SDS011;39539;52.202;9.876;2023-02-15T03:37:50;15.63;;;14.00;;
19675;SDS011;39539;52.202;9.876;2023-02-15T03:45:52;15.05;;;13.50;;
19675;SDS011;39539;52.202;9.876;2023-02-15T03:48:26;14.82;;;13.25;;
19675;SDS011;39539;52.202;9.876;2023-02-15T03:50:57;12.52;;;11.30;;
19675;SDS011;39539;52.202;9.876;2023-02-15T03:53:44;12.13;;;10.85;;
19675;SDS011;39539;52.202;9.876;2023-02-15T03:56:13;13.18;;;11.98;;
19675;SDS011;39539;52.202;9.876;2023-02-15T03:58:38;13.45;;;11.88;;
19675;SDS011;39539;52.202;9.876;2023-02-15T04:01:25;12.02;;;10.85;;
19675;SDS011;39539;52.202;9.876;2023-02-15T04:04:15;12.88;;;11.60;;
19675;SDS011;39539;52.202;9.876;2023-02-15T04:06:44;13.38;;;12.05;;
19675;SDS011;39539;52.202;9.876;2023-02-15T04:09:09;16.20;;;12.00;;
19675;SDS011;39539;52.202;9.876;2023-02-15T04:12:13;14.77;;;13.48;;
19675;SDS011;39539;52.202;9.876;2023-02-15T04:14:38;15.60;;;13.75;;
19675;SDS011;39539;52.202;9.876;2023-02-15T04:17:22;16.23;;;14.65;;
19675;SDS011;39539;52.202;9.876;2023-02-15T04:19:48;17.10;;;15.40;;
19675;SDS011;39539;52.202;9.876;2023-02-15T04:22:32;15.60;;;14.00;;
19675;SDS011;39539;52.202;9.876;2023-02-15T04:25:16;16.67;;;14.57;;
19675;SDS011;39539;52.202;9.876;2023-02-15T04:27:45;17.67;;;15.55;;
19675;SDS011;39539;52.202;9.876;2023-02-15T04:30:15;18.17;;;16.20;;
19675;SDS011;39539;52.202;9.876;2023-02-15T04:32:42;18.63;;;16.38;;
19675;SDS011;39539;52.202;9.876;2023-02-15T04:35:07;18.42;;;16.23;;
19675;SDS011;39539;52.202;9.876;2023-02-15T04:37:34;18.85;;;16.85;;
19675;SDS011;39539;52.202;9.876;2023-02-15T04:39:59;19.90;;;17.70;;
19675;SDS011;39539;52.202;9.876;2023-02-15T04:42:25;18.90;;;15.63;;
19675;SDS011;39539;52.202;9.876;2023-02-15T04:44:51;16.73;;;15.02;;
19675;SDS011;39539;52.202;9.876;2023-02-15T04:47:17;17.58;;;15.88;;
19675;SDS011;39539;52.202;9.876;2023-02-15T04:49:42;20.98;;;17.52;;
19675;SDS011;39539;52.202;9.876;2023-02-15T04:52:08;19.50;;;17.40;;
19675;SDS011;39539;52.202;9.876;2023-02-15T04:54:33;18.20;;;16.30;;
19675;SDS011;39539;52.202;9.876;2023-02-15T04:57:00;18.20;;;16.23;;
19675;SDS011;39539;52.202;9.876;2023-02-15T04:59:26;19.60;;;15.45;;
19675;SDS011;39539;52.202;9.876;2023-02-15T05:01:51;19.98;;;16.63;;
19675;SDS011;39539;52.202;9.876;2023-02-15T05:04:16;18.70;;;16.75;;
19675;SDS011;39539;52.202;9.876;2023-02-15T05:06:42;18.92;;;16.55;;
19675;SDS011;39539;52.202;9.876;2023-02-15T05:09:07;21.80;;;17.13;;
19675;SDS011;39539;52.202;9.876;2023-02-15T05:11:32;19.55;;;17.00;;
19675;SDS011;39539;52.202;9.876;2023-02-15T05:13:58;24.15;;;18.02;;
19675;SDS011;39539;52.202;9.876;2023-02-15T05:16:23;19.67;;;16.58;;
19675;SDS011;39539;52.202;9.876;2023-02-15T05:18:49;21.35;;;16.20;;
19675;SDS011;39539;52.202;9.876;2023-02-15T05:21:14;23.35;;;17.38;;
19675;SDS011;39539;52.202;9.876;2023-02-15T05:23:41;22.35;;;17.55;;
19675;SDS011;39539;52.202;9.876;2023-02-15T05:26:07;19.65;;;16.92;;
19675;SDS011;39539;52.202;9.876;2023-02-15T05:28:54;20.10;;;17.60;;
19675;SDS011;39539;52.202;9.876;2023-02-15T05:31:20;20.35;;;16.27;;
19675;SDS011;39539;52.202;9.876;2023-02-15T05:33:45;19.38;;;16.77;;
19675;SDS011;39539;52.202;9.876;2023-02-15T05:36:11;18.35;;;15.80;;
19675;SDS011;39539;52.202;9.876;2023-02-15T05:38:37;17.98;;;16.13;;
19675;SDS011;39539;52.202;9.876;2023-02-15T05:41:07;23.88;;;17.70;;
19675;SDS011;39539;52.202;9.876;2023-02-15T05:43:33;21.48;;;16.85;;
19675;SDS011;39539;52.202;9.876;2023-02-15T05:45:59;25.35;;;19.38;;
19675;SDS011;39539;52.202;9.876;2023-02-15T05:48:26;23.08;;;17.75;;
19675;SDS011;39539;52.202;9.876;2023-02-15T05:51:06;20.17;;;16.85;;
19675;SDS011;39539;52.202;9.876;2023-02-15T05:53:34;20.55;;;16.95;;
19675;SDS011;39539;52.202;9.876;2023-02-15T05:56:01;23.15;;;18.17;;
19675;SDS011;39539;52.202;9.876;2023-02-15T05:58:28;20.77;;;17.55;;
19675;SDS011;39539;52.202;9.876;2023-02-15T06:00:55;22.50;;;18.25;;
19675;SDS011;39539;52.202;9.876;2023-02-15T06:03:21;20.42;;;18.23;;
19675;SDS011;39539;52.202;9.876;2023-02-15T06:05:47;22.05;;;18.00;;
19675;SDS011;39539;52.202;9.876;2023-02-15T06:08:12;21.42;;;17.85;;
19675;SDS011;39539;52.202;9.876;2023-02-15T06:10:38;20.65;;;17.38;;
19675;SDS011;39539;52.202;9.876;2023-02-15T06:13:05;24.33;;;18.08;;
19675;SDS011;39539;52.202;9.876;2023-02-15T06:15:30;21.08;;;17.30;;
19675;SDS011;39539;52.202;9.876;2023-02-15T06:17:56;23.87;;;18.27;;
19675;SDS011;39539;52.202;9.876;2023-02-15T06:20:21;24.45;;;21.90;;
19675;SDS011;39539;52.202;9.876;2023-02-15T06:22:47;21.83;;;19.58;;
19675;SDS011;39539;52.202;9.876;2023-02-15T06:25:12;22.02;;;19.42;;
19675;SDS011;39539;52.202;9.876;2023-02-15T06:27:38;20.10;;;18.10;;
19675;SDS011;39539;52.202;9.876;2023-02-15T06:30:07;19.27;;;17.27;;
19675;SDS011;39539;52.202;9.876;2023-02-15T06:32:33;20.98;;;17.15;;
19675;SDS011;39539;52.202;9.876;2023-02-15T06:34:58;19.33;;;16.17;;
19675;SDS011;39539;52.202;9.876;2023-02-15T06:37:23;19.77;;;17.38;;
19675;SDS011;39539;52.202;9.876;2023-02-15T06:39:52;20.83;;;17.75;;
19675;SDS011;39539;52.202;9.876;2023-02-15T06:42:17;21.20;;;16.52;;
19675;SDS011;39539;52.202;9.876;2023-02-15T06:44:43;21.27;;;18.17;;
19675;SDS011;39539;52.202;9.876;2023-02-15T06:47:09;26.08;;;20.38;;
19675;SDS011;39539;52.202;9.876;2023-02-15T06:49:36;24.10;;;18.77;;
19675;SDS011;39539;52.202;9.876;2023-02-15T06:52:03;18.00;;;15.35;;
19675;SDS011;39539;52.202;9.876;2023-02-15T06:54:30;18.33;;;15.65;;
19675;SDS011;39539;52.202;9.876;2023-02-15T06:56:56;19.30;;;15.75;;
19675;SDS011;39539;52.202;9.876;2023-02-15T06:59:21;17.13;;;15.32;;
19675;SDS011;39539;52.202;9.876;2023-02-15T07:01:47;20.88;;;15.65;;
19675;SDS011;39539;52.202;9.876;2023-02-15T07:04:17;18.52;;;15.45;;
19675;SDS011;39539;52.202;9.876;2023-02-15T07:06:42;18.58;;;16.55;;
19675;SDS011;39539;52.202;9.876;2023-02-15T07:09:08;19.83;;;16.88;;
19675;SDS011;39539;52.202;9.876;2023-02-15T07:11:33;18.23;;;15.23;;
19675;SDS011;39539;52.202;9.876;2023-02-15T07:14:19;19.45;;;16.40;;
19675;SDS011;39539;52.202;9.876;2023-02-15T07:16:46;18.50;;;15.38;;
19675;SDS011;39539;52.202;9.876;2023-02-15T07:19:11;17.85;;;15.90;;
19675;SDS011;39539;52.202;9.876;2023-02-15T07:21:38;17.92;;;16.02;;
19675;SDS011;39539;52.202;9.876;2023-02-15T07:24:03;20.08;;;17.55;;
19675;SDS011;39539;52.202;9.876;2023-02-15T07:26:33;18.00;;;16.25;;
19675;SDS011;39539;52.202;9.876;2023-02-15T07:28:58;15.20;;;13.77;;
19675;SDS011;39539;52.202;9.876;2023-02-15T07:31:25;13.43;;;12.13;;
19675;SDS011;39539;52.202;9.876;2023-02-15T07:33:50;12.65;;;11.45;;
19675;SDS011;39539;52.202;9.876;2023-02-15T07:36:17;11.57;;;10.40;;
19675;SDS011;39539;52.202;9.876;2023-02-15T07:38:44;11.80;;;10.82;;
19675;SDS011;39539;52.202;9.876;2023-02-15T07:41:10;12.13;;;11.13;;
19675;SDS011;39539;52.202;9.876;2023-02-15T07:43:41;12.05;;;11.15;;
19675;SDS011;39539;52.202;9.876;2023-02-15T07:46:12;13.15;;;12.15;;
19675;SDS011;39539;52.202;9.876;2023-02-15T07:48:43;19.50;;;17.95;;
19675;SDS011;39539;52.202;9.876;2023-02-15T07:51:09;13.00;;;11.93;;
19675;SDS011;39539;52.202;9.876;2023-02-15T07:53:36;12.63;;;11.63;;
19675;SDS011;39539;52.202;9.876;2023-02-15T07:56:04;12.65;;;11.65;;
19675;SDS011;39539;52.202;9.876;2023-02-15T07:58:32;11.38;;;10.48;;
19675;SDS011;39539;52.202;9.876;2023-02-15T08:01:33;11.30;;;10.50;;
19675;SDS011;39539;52.202;9.876;2023-02-15T08:04:01;11.95;;;11.05;;
19675;SDS011;39539;52.202;9.876;2023-02-15T08:06:28;11.05;;;10.25;;
19675;SDS011;39539;52.202;9.876;2023-02-15T08:08:55;9.98;;;9.20;;
19675;SDS011;39539;52.202;9.876;2023-02-15T08:11:22;10.55;;;9.75;;
19675;SDS011;39539;52.202;9.876;2023-02-15T08:14:05;10.10;;;9.30;;
19675;SDS011;39539;52.202;9.876;2023-02-15T08:19:02;9.68;;;8.98;;
19675;SDS011;39539;52.202;9.876;2023-02-15T08:21:33;9.38;;;8.63;;
19675;SDS011;39539;52.202;9.876;2023-02-15T08:24:00;9.93;;;9.13;;
19675;SDS011;39539;52.202;9.876;2023-02-15T08:26:26;10.40;;;9.50;;
19675;SDS011;39539;52.202;9.876;2023-02-15T08:28:53;10.77;;;9.98;;
19675;SDS011;39539;52.202;9.876;2023-02-15T08:31:20;11.57;;;10.48;;
19675;SDS011;39539;52.202;9.876;2023-02-15T08:33:46;10.70;;;9.85;;
19675;SDS011;39539;52.202;9.876;2023-02-15T08:36:15;10.70;;;9.90;;
19675;SDS011;39539;52.202;9.876;2023-02-15T08:38:42;10.80;;;10.00;;
19675;SDS011;39539;52.202;9.876;2023-02-15T08:43:37;11.55;;;10.65;;
19675;SDS011;39539;52.202;9.876;2023-02-15T08:46:04;11.63;;;10.73;;
19675;SDS011;39539;52.202;9.876;2023-02-15T08:48:30;10.73;;;9.93;;
19675;SDS011;39539;52.202;9.876;2023-02-15T08:50:56;11.45;;;10.60;;
19675;SDS011;39539;52.202;9.876;2023-02-15T08:53:22;11.70;;;10.80;;
19675;SDS011;39539;52.202;9.876;2023-02-15T08:55:57;12.13;;;11.23;;
19675;SDS011;39539;52.202;9.876;2023-02-15T08:58:25;13.60;;;12.60;;
19675;SDS011;39539;52.202;9.876;2023-02-15T09:00:51;11.40;;;10.60;;
19675;SDS011;39539;52.202;9.876;2023-02-15T09:03:17;11.02;;;10.23;;
19675;SDS011;39539;52.202;9.876;2023-02-15T09:05:42;11.20;;;10.30;;
19675;SDS011;39539;52.202;9.876;2023-02-15T09:08:08;10.43;;;9.63;;
19675;SDS011;39539;52.202;9.876;2023-02-15T09:10:33;11.40;;;10.50;;
19675;SDS011;39539;52.202;9.876;2023-02-15T09:12:59;10.63;;;9.85;;
19675;SDS011;39539;52.202;9.876;2023-02-15T09:15:24;10.50;;;9.70;;
19675;SDS011;39539;52.202;9.876;2023-02-15T09:17:50;10.10;;;9.40;;
19675;SDS011;39539;52.202;9.876;2023-02-15T09:20:15;11.13;;;10.23;;
19675;SDS011;39539;52.202;9.876;2023-02-15T09:22:41;10.45;;;9.65;;
19675;SDS011;39539;52.202;9.876;2023-02-15T09:25:06;11.23;;;10.32;;
19675;SDS011;39539;52.202;9.876;2023-02-15T09:27:32;9.63;;;8.82;;
19675;SDS011;39539;52.202;9.876;2023-02-15T09:29:57;9.27;;;8.57;;
19675;SDS011;39539;52.202;9.876;2023-02-15T09:32:23;9.88;;;9.18;;
19675;SDS011;39539;52.202;9.876;2023-02-15T09:34:48;9.85;;;9.10;;
19675;SDS011;39539;52.202;9.876;2023-02-15T09:37:13;9.82;;;9.10;;
19675;SDS011;39539;52.202;9.876;2023-02-15T09:39:40;9.00;;;8.30;;
19675;SDS011;39539;52.202;9.876;2023-02-15T09:45:16;9.13;;;8.43;;
19675;SDS011;39539;52.202;9.876;2023-02-15T09:56:30;10.20;;;9.40;;
19675;SDS011;39539;52.202;9.876;2023-02-15T09:59:18;10.10;;;9.40;;
19675;SDS011;39539;52.202;9.876;2023-02-15T10:01:55;10.20;;;9.40;;
19675;SDS011;39539;52.202;9.876;2023-02-15T10:07:33;10.77;;;9.88;;
19675;SDS011;39539;52.202;9.876;2023-02-15T10:20:27;8.93;;;8.20;;
19675;SDS011;39539;52.202;9.876;2023-02-15T10:28:56;10.43;;;9.63;;
19675;SDS011;39539;52.202;9.876;2023-02-15T10:37:16;9.90;;;9.20;;
19675;SDS011;39539;52.202;9.876;2023-02-15T10:42:52;10.55;;;9.55;;
19675;SDS011;39539;52.202;9.876;2023-02-15T10:50:57;10.32;;;9.43;;
19675;SDS011;39539;52.202;9.876;2023-02-15T11:02:24;10.00;;;9.20;;
19675;SDS011;39539;52.202;9.876;2023-02-15T11:05:34;10.68;;;9.88;;
19675;SDS011;39539;52.202;9.876;2023-02-15T11:08:14;10.32;;;9.52;;
19675;SDS011;39539;52.202;9.876;2023-02-15T11:10:43;11.25;;;10.20;;
19675;SDS011;39539;52.202;9.876;2023-02-15T11:13:14;9.65;;;8.85;;
19675;SDS011;39539;52.202;9.876;2023-02-15T11:21:48;11.10;;;10.20;;
19675;SDS011;39539;52.202;9.876;2023-02-15T11:24:17;11.75;;;10.43;;
19675;SDS011;39539;52.202;9.876;2023-02-15T11:30:00;13.55;;;10.57;;
19675;SDS011;39539;52.202;9.876;2023-02-15T11:32:35;11.43;;;10.43;;
19675;SDS011;39539;52.202;9.876;2023-02-15T11:37:40;11.18;;;10.27;;
19675;SDS011;39539;52.202;9.876;2023-02-15T11:42:43;10.65;;;9.80;;
19675;SDS011;39539;52.202;9.876;2023-02-15T11:47:46;10.85;;;9.95;;
19675;SDS011;39539;52.202;9.876;2023-02-15T11:50:16;10.85;;;9.95;;
19675;SDS011;39539;52.202;9.876;2023-02-15T11:52:48;9.98;;;9.27;;
19675;SDS011;39539;52.202;9.876;2023-02-15T11:55:18;10.05;;;9.25;;
19675;SDS011;39539;52.202;9.876;2023-02-15T11:58:08;11.10;;;10.30;;
19675;SDS011;39539;52.202;9.876;2023-02-15T12:00:50;10.55;;;9.65;;
19675;SDS011;39539;52.202;9.876;2023-02-15T12:03:22;10.77;;;9.98;;
19675;SDS011;39539;52.202;9.876;2023-02-15T12:05:57;11.43;;;10.43;;
19675;SDS011;39539;52.202;9.876;2023-02-15T12:08:26;11.95;;;10.95;;
19675;SDS011;39539;52.202;9.876;2023-02-15T12:11:10;10.90;;;10.02;;
19675;SDS011;39539;52.202;9.876;2023-02-15T12:13:53;10.70;;;9.85;;
19675;SDS011;39539;52.202;9.876;2023-02-15T12:16:21;10.82;;;9.88;;
19675;SDS011;39539;52.202;9.876;2023-02-15T12:18:47;50.72;;;15.05;;
19675;SDS011;39539;52.202;9.876;2023-02-15T12:21:32;14.65;;;11.30;;
19675;SDS011;39539;52.202;9.876;2023-02-15T12:24:25;11.32;;;10.43;;
19675;SDS011;39539;52.202;9.876;2023-02-15T12:26:56;11.38;;;10.48;;
19675;SDS011;39539;52.202;9.876;2023-02-15T12:29:26;12.05;;;11.15;;
19675;SDS011;39539;52.202;9.876;2023-02-15T12:31:55;11.95;;;10.95;;
19675;SDS011;39539;52.202;9.876;2023-02-15T12:34:23;11.13;;;10.27;;
19675;SDS011;39539;52.202;9.876;2023-02-15T12:36:52;11.90;;;11.00;;
19675;SDS011;39539;52.202;9.876;2023-02-15T12:39:24;11.88;;;10.98;;
19675;SDS011;39539;52.202;9.876;2023-02-15T12:44:26;12.25;;;11.20;;
19675;SDS011;39539;52.202;9.876;2023-02-15T12:49:24;11.82;;;10.80;;
19675;SDS011;39539;52.202;9.876;2023-02-15T12:51:51;12.18;;;11.27;;
19675;SDS011;39539;52.202;9.876;2023-02-15T12:54:29;12.10;;;11.13;;
19675;SDS011;39539;52.202;9.876;2023-02-15T12:56:55;12.00;;;11.10;;
19675;SDS011;39539;52.202;9.876;2023-02-15T12:59:22;12.15;;;11.25;;
19675;SDS011;39539;52.202;9.876;2023-02-15T13:01:48;11.60;;;10.70;;
19675;SDS011;39539;52.202;9.876;2023-02-15T13:06:51;12.10;;;11.10;;
19675;SDS011;39539;52.202;9.876;2023-02-15T13:09:20;11.70;;;10.80;;
19675;SDS011;39539;52.202;9.876;2023-02-15T13:11:52;14.38;;;12.18;;
19675;SDS011;39539;52.202;9.876;2023-02-15T13:16:52;10.18;;;9.38;;
19675;SDS011;39539;52.202;9.876;2023-02-15T13:19:28;10.85;;;9.95;;
19675;SDS011;39539;52.202;9.876;2023-02-15T13:22:01;10.73;;;9.93;;
19675;SDS011;39539;52.202;9.876;2023-02-15T13:24:34;10.80;;;9.98;;
19675;SDS011;39539;52.202;9.876;2023-02-15T13:27:04;11.43;;;10.55;;
19675;SDS011;39539;52.202;9.876;2023-02-15T13:29:31;10.52;;;9.77;;
19675;SDS011;39539;52.202;9.876;2023-02-15T13:32:46;12.35;;;11.27;;
19675;SDS011;39539;52.202;9.876;2023-02-15T13:34:54;11.18;;;10.30;;
19675;SDS011;39539;52.202;9.876;2023-02-15T13:40:01;12.75;;;11.75;;
19675;SDS011;39539;52.202;9.876;2023-02-15T13:51:13;12.10;;;11.20;;
19675;SDS011;39539;52.202;9.876;2023-02-15T14:01:58;12.38;;;11.27;;
19675;SDS011;39539;52.202;9.876;2023-02-15T14:24:11;12.73;;;11.73;;
19675;SDS011;39539;52.202;9.876;2023-02-15T14:26:59;13.38;;;12.27;;
19675;SDS011;39539;52.202;9.876;2023-02-15T14:34:58;13.50;;;12.40;;
19675;SDS011;39539;52.202;9.876;2023-02-15T14:37:39;14.45;;;13.25;;
19675;SDS011;39539;52.202;9.876;2023-02-15T14:40:30;14.05;;;12.95;;
19675;SDS011;39539;52.202;9.876;2023-02-15T14:46:34;13.32;;;12.23;;
19675;SDS011;39539;52.202;9.876;2023-02-15T14:57:33;12.90;;;11.90;;
19675;SDS011;39539;52.202;9.876;2023-02-15T15:07:52;12.88;;;11.77;;
19675;SDS011;39539;52.202;9.876;2023-02-15T15:10:38;13.30;;;12.20;;
19675;SDS011;39539;52.202;9.876;2023-02-15T15:15:56;12.77;;;11.63;;
19675;SDS011;39539;52.202;9.876;2023-02-15T15:18:43;13.52;;;12.43;;
19675;SDS011;39539;52.202;9.876;2023-02-15T15:21:09;12.98;;;11.88;;
19675;SDS011;39539;52.202;9.876;2023-02-15T15:23:39;13.88;;;12.77;;
19675;SDS011;39539;52.202;9.876;2023-02-15T15:26:30;13.98;;;12.88;;
19675;SDS011;39539;52.202;9.876;2023-02-15T15:29:01;15.02;;;13.88;;
19675;SDS011;39539;52.202;9.876;2023-02-15T15:42:32;12.73;;;11.70;;
19675;SDS011;39539;52.202;9.876;2023-02-15T15:50:58;14.35;;;13.00;;
19675;SDS011;39539;52.202;9.876;2023-02-15T15:53:28;12.98;;;11.98;;
19675;SDS011;39539;52.202;9.876;2023-02-15T15:56:16;14.30;;;13.10;;
19675;SDS011;39539;52.202;9.876;2023-02-15T15:58:48;14.30;;;13.10;;
19675;SDS011;39539;52.202;9.876;2023-02-15T16:01:21;13.80;;;12.70;;
19675;SDS011;39539;52.202;9.876;2023-02-15T16:03:53;13.70;;;12.60;;
19675;SDS011;39539;52.202;9.876;2023-02-15T16:06:54;14.40;;;13.20;;
19675;SDS011;39539;52.202;9.876;2023-02-15T16:09:18;14.23;;;12.98;;
19675;SDS011;39539;52.202;9.876;2023-02-15T16:11:51;14.35;;;13.23;;
19675;SDS011;39539;52.202;9.876;2023-02-15T16:14:30;12.88;;;11.88;;
19675;SDS011;39539;52.202;9.876;2023-02-15T16:17:00;13.50;;;12.40;;
19675;SDS011;39539;52.202;9.876;2023-02-15T16:19:30;14.40;;;13.20;;
19675;SDS011;39539;52.202;9.876;2023-02-15T16:22:03;13.65;;;12.55;;
19675;SDS011;39539;52.202;9.876;2023-02-15T16:33:03;13.43;;;12.32;;
19675;SDS011;39539;52.202;9.876;2023-02-15T16:35:33;13.00;;;11.90;;
19675;SDS011;39539;52.202;9.876;2023-02-15T16:38:01;13.10;;;11.95;;
19675;SDS011;39539;52.202;9.876;2023-02-15T16:40:30;13.48;;;12.38;;
19675;SDS011;39539;52.202;9.876;2023-02-15T16:43:12;12.35;;;11.05;;
19675;SDS011;39539;52.202;9.876;2023-02-15T16:45:41;14.85;;;13.52;;
19675;SDS011;39539;52.202;9.876;2023-02-15T16:48:12;13.68;;;12.57;;
19675;SDS011;39539;52.202;9.876;2023-02-15T16:50:46;13.32;;;12.15;;
19675;SDS011;39539;52.202;9.876;2023-02-15T16:53:17;14.48;;;13.27;;
19675;SDS011;39539;52.202;9.876;2023-02-15T16:55:47;13.77;;;12.57;;
19675;SDS011;39539;52.202;9.876;2023-02-15T16:58:16;13.25;;;12.10;;
19675;SDS011;39539;52.202;9.876;2023-02-15T17:00:43;16.13;;;14.63;;
19675;SDS011;39539;52.202;9.876;2023-02-15T17:05:44;15.98;;;14.68;;
19675;SDS011;39539;52.202;9.876;2023-02-15T17:08:14;17.27;;;15.77;;
19675;SDS011;39539;52.202;9.876;2023-02-15T17:10:42;15.45;;;13.98;;
19675;SDS011;39539;52.202;9.876;2023-02-15T17:13:17;14.40;;;13.10;;
19675;SDS011;39539;52.202;9.876;2023-02-15T17:15:44;13.95;;;12.75;;
19675;SDS011;39539;52.202;9.876;2023-02-15T17:18:33;13.88;;;12.65;;
19675;SDS011;39539;52.202;9.876;2023-02-15T17:21:28;15.35;;;13.85;;
19675;SDS011;39539;52.202;9.876;2023-02-15T17:23:58;25.23;;;22.63;;
19675;SDS011;39539;52.202;9.876;2023-02-15T17:26:27;22.70;;;20.55;;
19675;SDS011;39539;52.202;9.876;2023-02-15T17:28:57;13.43;;;12.18;;
19675;SDS011;39539;52.202;9.876;2023-02-15T17:31:23;13.30;;;12.10;;
19675;SDS011;39539;52.202;9.876;2023-02-15T17:33:53;12.57;;;11.38;;
19675;SDS011;39539;52.202;9.876;2023-02-15T17:36:23;12.40;;;11.20;;
19675;SDS011;39539;52.202;9.876;2023-02-15T17:39:01;12.75;;;11.55;;
19675;SDS011;39539;52.202;9.876;2023-02-15T17:41:31;12.75;;;11.55;;
19675;SDS011;39539;52.202;9.876;2023-02-15T17:44:00;11.57;;;10.57;;
19675;SDS011;39539;52.202;9.876;2023-02-15T17:46:28;13.20;;;11.85;;
19675;SDS011;39539;52.202;9.876;2023-02-15T17:49:01;12.98;;;11.88;;
19675;SDS011;39539;52.202;9.876;2023-02-15T17:51:28;12.73;;;11.63;;
19675;SDS011;39539;52.202;9.876;2023-02-15T17:53:54;12.80;;;11.65;;
19675;SDS011;39539;52.202;9.876;2023-02-15T17:56:38;16.25;;;14.73;;
19675;SDS011;39539;52.202;9.876;2023-02-15T17:59:04;12.30;;;11.20;;
19675;SDS011;39539;52.202;9.876;2023-02-15T18:01:33;12.00;;;10.90;;
19675;SDS011;39539;52.202;9.876;2023-02-15T18:04:19;13.95;;;12.68;;
19675;SDS011;39539;52.202;9.876;2023-02-15T18:07:04;12.55;;;11.35;;
19675;SDS011;39539;52.202;9.876;2023-02-15T18:09:48;11.50;;;10.50;;
19675;SDS011;39539;52.202;9.876;2023-02-15T18:12:34;11.60;;;10.50;;
19675;SDS011;39539;52.202;9.876;2023-02-15T18:15:03;12.52;;;11.32;;